Terminal Aerodrome Forecast
Issued by NWS Blacksburg, VA

Current Version | Previous Version | Text Only | Print | Product List | Glossary Off
Versions: 1 2 3 4 5 6 7 8 9 10 11 12 13 14 15 16 17 18 19 20 21 22 23 24 25 26 27 28

438
FTUS41 KRNK 251122
TAFBLF
TAF
KBLF 251122Z 2512/2612 25004KT P6SM SCT040 BKN150
     FM251900 26006KT P6SM VCTS BKN050CB
     FM260100 27004KT P6SM SCT050 BKN080=

USA.gov is the U.S. government's official web portal to all federal, state and local government web resources and services.